createdAt,value
2023-05-10T00:00:49.333Z,96.4677
2023-05-10T00:01:57.432Z,96.2606
2023-05-10T00:03:05.643Z,96.0920
2023-05-10T00:04:13.621Z,96.0007
2023-05-10T00:05:21.501Z,96.1545
2023-05-10T00:06:29.470Z,96.1421
2023-05-10T00:07:37.523Z,96.1682
2023-05-10T00:08:45.712Z,96.1171
2023-05-10T00:09:53.856Z,96.0657
2023-05-10T00:11:01.860Z,96.0423
2023-05-10T00:12:09.922Z,95.9893
2023-05-10T00:13:18.048Z,96.0304
2023-05-10T00:14:26.085Z,95.7488
2023-05-10T00:15:34.048Z,95.8378
2023-05-10T00:16:42.149Z,95.8059
2023-05-10T00:17:50.178Z,95.7129
2023-05-10T00:18:58.237Z,95.3937
2023-05-10T00:20:06.198Z,95.3372
2023-05-10T00:21:14.196Z,95.3437
2023-05-10T00:22:22.253Z,95.2574
2023-05-10T00:23:30.468Z,95.2641
2023-05-10T00:24:38.474Z,95.1875
2023-05-10T00:25:46.794Z,95.0457
2023-05-10T00:26:54.944Z,94.8729
2023-05-10T00:28:02.663Z,94.7416
2023-05-10T00:29:10.702Z,94.9468
2023-05-10T00:30:19.041Z,94.7468
2023-05-10T00:31:26.863Z,94.6902
2023-05-10T00:32:34.918Z,94.6598
2023-05-10T00:33:42.922Z,94.7430
2023-05-10T00:34:50.875Z,94.6863
2023-05-10T00:35:58.896Z,94.2314
2023-05-10T00:37:06.996Z,93.8328
2023-05-10T00:38:15.227Z,93.9831
2023-05-10T00:39:23.292Z,93.9749
2023-05-10T00:40:31.341Z,93.8024
2023-05-10T00:41:39.436Z,93.8188
2023-05-10T00:42:47.589Z,93.9257
2023-05-10T00:43:55.486Z,94.0897
2023-05-10T00:45:03.529Z,93.8703
2023-05-10T00:46:11.751Z,93.8241
2023-05-10T00:47:19.644Z,93.8685
2023-05-10T00:48:27.783Z,93.6745
2023-05-10T00:49:35.620Z,93.7300
2023-05-10T00:50:43.690Z,93.9337
2023-05-10T00:51:51.721Z,94.4732
2023-05-10T00:52:59.976Z,94.7414
2023-05-10T00:54:08.023Z,94.9074
2023-05-10T00:55:16.035Z,94.9857
2023-05-10T00:56:24.086Z,94.9446
2023-05-10T00:57:32.166Z,94.9080
2023-05-10T00:58:40.319Z,95.3389
2023-05-10T00:59:48.299Z,95.3608
2023-05-10T01:00:56.426Z,95.2132
2023-05-10T01:02:04.479Z,95.0728
2023-05-10T01:03:12.582Z,94.9685
2023-05-10T01:04:20.396Z,95.0223
2023-05-10T01:05:28.478Z,94.8849
2023-05-10T01:06:36.476Z,94.7685
2023-05-10T01:07:44.708Z,94.6596
2023-05-10T01:08:52.724Z,94.6307
2023-05-10T01:10:00.800Z,94.8613
2023-05-10T01:11:08.861Z,95.0019
2023-05-10T01:12:16.979Z,94.8122
2023-05-10T01:13:25.008Z,94.6668
2023-05-10T01:14:33.144Z,94.4692
2023-05-10T01:15:41.147Z,94.3826
2023-05-10T01:16:49.106Z,94.5923
2023-05-10T01:17:57.209Z,94.7402
2023-05-10T01:19:05.089Z,94.4663
2023-05-10T01:20:13.190Z,94.3890
2023-05-10T01:21:21.259Z,94.6385
2023-05-10T01:22:29.407Z,94.6303
2023-05-10T01:23:37.456Z,94.6122
2023-05-10T01:24:45.502Z,94.8189
2023-05-10T01:25:53.573Z,94.8476
2023-05-10T01:27:01.654Z,94.9273
2023-05-10T01:28:09.672Z,94.9017
2023-05-10T01:29:17.758Z,95.1884
2023-05-10T01:30:25.909Z,95.0705
2023-05-10T01:31:33.959Z,94.9729
2023-05-10T01:32:42.136Z,94.9912
2023-05-10T01:33:49.834Z,95.0761
2023-05-10T01:34:57.887Z,95.0319
2023-05-10T01:36:05.940Z,94.9890
2023-05-10T01:37:14.134Z,95.1538
2023-05-10T01:38:22.207Z,94.9844
2023-05-10T01:39:30.236Z,95.2450
2023-05-10T01:40:38.289Z,95.3500
2023-05-10T01:41:46.384Z,95.6140
2023-05-10T01:42:54.402Z,95.5582
2023-05-10T01:44:02.435Z,95.2737
2023-05-10T01:45:10.496Z,95.1961
2023-05-10T01:46:18.673Z,95.2818
2023-05-10T01:47:26.707Z,95.4222
2023-05-10T01:48:34.540Z,95.0569
2023-05-10T01:49:42.574Z,94.8518
2023-05-10T01:50:50.665Z,94.7042
2023-05-10T01:51:58.901Z,94.5764
2023-05-10T01:53:06.942Z,94.6280
2023-05-10T01:54:14.983Z,94.4631
2023-05-10T01:55:23.039Z,94.3681
2023-05-10T01:56:31.193Z,94.7553
2023-05-10T01:57:39.176Z,94.6946
2023-05-10T01:58:47.292Z,94.7332
2023-05-10T01:59:55.258Z,94.5552
2023-05-10T02:01:03.398Z,94.5908
2023-05-10T02:02:11.379Z,94.5038
2023-05-10T02:03:19.303Z,94.6157
2023-05-10T02:04:27.317Z,95.1633
2023-05-10T02:05:35.390Z,95.6809
2023-05-10T02:06:43.658Z,95.8963
2023-05-10T02:07:51.601Z,96.0969
2023-05-10T02:08:59.727Z,96.2712
2023-05-10T02:10:07.731Z,96.3608
2023-05-10T02:11:15.802Z,96.3631
2023-05-10T02:12:23.992Z,96.4153
2023-05-10T02:13:31.983Z,96.9036
2023-05-10T02:14:39.934Z,96.8865
2023-05-10T02:15:48.000Z,96.8783
2023-05-10T02:16:56.186Z,96.6592
2023-05-10T02:18:04.256Z,95.9325
2023-05-10T02:19:12.043Z,96.2434
2023-05-10T02:20:20.327Z,96.4143
2023-05-10T02:21:28.160Z,96.0585
2023-05-10T02:22:36.364Z,95.8552
2023-05-10T02:23:44.475Z,95.4745
2023-05-10T02:24:52.464Z,95.3857
2023-05-10T02:26:00.737Z,95.5096
2023-05-10T02:27:08.559Z,95.5703
2023-05-10T02:28:16.715Z,95.7182
2023-05-10T02:29:24.724Z,95.5677
2023-05-10T02:30:32.873Z,95.4120
2023-05-10T02:31:41.331Z,95.1886
2023-05-10T02:32:48.795Z,94.9710
2023-05-10T02:33:56.795Z,95.0405
2023-05-10T02:35:04.880Z,95.1502
2023-05-10T02:36:13.052Z,94.9127
2023-05-10T02:37:21.211Z,94.8544
2023-05-10T02:38:29.258Z,95.3656
2023-05-10T02:39:37.261Z,95.6299
2023-05-10T02:40:45.269Z,95.8303
2023-05-10T02:41:53.398Z,96.1260
2023-05-10T02:43:01.416Z,96.0548
2023-05-10T02:44:09.692Z,95.7669
2023-05-10T02:45:17.609Z,95.5620
2023-05-10T02:46:25.790Z,95.1515
2023-05-10T02:47:33.624Z,94.8540
2023-05-10T02:48:41.535Z,94.7546
2023-05-10T02:49:49.583Z,94.8017
2023-05-10T02:50:57.886Z,94.9035
2023-05-10T02:52:10.735Z,94.7863
2023-05-10T02:53:19.019Z,94.6983
2023-05-10T02:54:26.833Z,94.4843
2023-05-10T02:55:34.921Z,94.7127
2023-05-10T02:56:42.984Z,94.6465
2023-05-10T02:57:50.981Z,94.3959
2023-05-10T02:58:59.102Z,94.1264
2023-05-10T03:00:07.109Z,94.5076
2023-05-10T03:01:15.053Z,94.9271
2023-05-10T03:02:23.146Z,94.8325
2023-05-10T03:03:31.120Z,94.8802
2023-05-10T03:04:39.433Z,95.0049
2023-05-10T03:05:47.353Z,95.2109
2023-05-10T03:06:55.441Z,95.4574
2023-05-10T03:08:03.599Z,95.4978
2023-05-10T03:09:11.679Z,95.2230
2023-05-10T03:10:19.726Z,95.3387
2023-05-10T03:11:27.673Z,95.3001
2023-05-10T03:12:35.695Z,95.1882
2023-05-10T03:13:43.825Z,95.0782
2023-05-10T03:14:51.990Z,94.9919
2023-05-10T03:15:59.782Z,94.8364
2023-05-10T03:17:07.803Z,94.5633
2023-05-10T03:18:15.925Z,94.6211
2023-05-10T03:19:24.185Z,94.8451
2023-05-10T03:20:32.182Z,94.6750
2023-05-10T03:21:40.262Z,94.3941
2023-05-10T03:22:48.109Z,94.0945
2023-05-10T03:23:56.345Z,93.8896
2023-05-10T03:25:04.524Z,93.9731
2023-05-10T03:26:12.393Z,94.1387
2023-05-10T03:27:20.472Z,94.1927
2023-05-10T03:28:28.654Z,94.5699
2023-05-10T03:29:36.620Z,95.2973
2023-05-10T03:30:44.506Z,95.5808
2023-05-10T03:31:52.684Z,95.4888
2023-05-10T03:33:00.785Z,95.6296
2023-05-10T03:34:08.861Z,95.7368
2023-05-10T03:35:16.987Z,95.5221
2023-05-10T03:36:24.945Z,95.4423
2023-05-10T03:37:32.971Z,95.1005
2023-05-10T03:38:41.078Z,95.0106
2023-05-10T03:39:49.210Z,95.7101
2023-05-10T03:40:57.468Z,95.6482
2023-05-10T03:42:05.290Z,95.4908
2023-05-10T03:43:13.323Z,95.1956
2023-05-10T03:44:21.412Z,95.1176
2023-05-10T03:45:29.254Z,94.7715
2023-05-10T03:46:37.388Z,94.5625
2023-05-10T03:47:45.505Z,94.6648
2023-05-10T03:48:53.578Z,94.8856
2023-05-10T03:50:01.678Z,94.7972
2023-05-10T03:51:09.835Z,94.8239
2023-05-10T03:52:17.921Z,94.7655
2023-05-10T03:53:26.161Z,94.4171
2023-05-10T03:54:34.000Z,94.1702
2023-05-10T03:55:41.978Z,93.9942
2023-05-10T03:56:50.033Z,94.1105
2023-05-10T03:57:58.128Z,94.4958
2023-05-10T03:59:06.041Z,94.5647
2023-05-10T04:00:14.046Z,94.5958
2023-05-10T04:01:22.021Z,94.6125
2023-05-10T04:02:30.213Z,94.1840
2023-05-10T04:03:38.383Z,94.1126
2023-05-10T04:04:46.383Z,93.8989
2023-05-10T04:05:54.367Z,93.8919
2023-05-10T04:07:02.436Z,94.0589
2023-05-10T04:08:10.449Z,94.1694
2023-05-10T04:09:18.567Z,94.1342
2023-05-10T04:10:26.672Z,94.3072
2023-05-10T04:11:34.799Z,94.2450
2023-05-10T04:12:42.836Z,94.0555
2023-05-10T04:13:50.766Z,94.2068
2023-05-10T04:14:58.703Z,94.0509
2023-05-10T04:16:06.843Z,93.8541
2023-05-10T04:17:14.905Z,93.5606
2023-05-10T04:18:23.025Z,93.4886
2023-05-10T04:19:31.105Z,93.8410
2023-05-10T04:20:39.140Z,94.0454
2023-05-10T04:21:47.181Z,94.0770
2023-05-10T04:22:55.237Z,93.8612
2023-05-10T04:24:03.155Z,94.1055
2023-05-10T04:25:11.521Z,94.1433
2023-05-10T04:26:19.411Z,94.1855
2023-05-10T04:27:27.517Z,94.0605
2023-05-10T04:28:35.532Z,93.8719
2023-05-10T04:29:43.511Z,93.7732
2023-05-10T04:30:51.545Z,93.6911
2023-05-10T04:31:59.567Z,93.8298
2023-05-10T04:33:07.889Z,93.8139
2023-05-10T04:34:15.806Z,93.9420
2023-05-10T04:35:23.873Z,93.8400
2023-05-10T04:36:31.933Z,93.7914
2023-05-10T04:37:39.949Z,94.0503
2023-05-10T04:38:48.077Z,94.1043
2023-05-10T04:39:56.114Z,94.0380
2023-05-10T04:41:04.164Z,94.0590
2023-05-10T04:42:12.454Z,94.2169
2023-05-10T04:43:20.247Z,94.2337
2023-05-10T04:44:28.181Z,94.0302
2023-05-10T04:45:36.225Z,94.0689
2023-05-10T04:46:44.361Z,93.9856
2023-05-10T04:47:52.713Z,93.9667
2023-05-10T04:49:00.562Z,94.1136
2023-05-10T04:50:08.697Z,94.0100
2023-05-10T04:51:16.765Z,93.7425
2023-05-10T04:52:24.763Z,93.7020
2023-05-10T04:53:32.886Z,93.4553
2023-05-10T04:54:41.051Z,93.4336
2023-05-10T04:55:49.090Z,92.8768
2023-05-10T04:56:57.058Z,92.7067
2023-05-10T04:58:05.051Z,92.5117
2023-05-10T04:59:13.019Z,92.4742
2023-05-10T05:00:21.046Z,92.5297
2023-05-10T05:01:29.263Z,92.2512
2023-05-10T05:02:37.397Z,92.4543
2023-05-10T05:03:45.679Z,92.4731
2023-05-10T05:04:53.406Z,92.3464
2023-05-10T05:06:01.578Z,92.3153
2023-05-10T05:07:09.536Z,91.9139
2023-05-10T05:08:17.672Z,91.3221
2023-05-10T05:09:25.650Z,91.3231
2023-05-10T05:10:33.825Z,91.4640
2023-05-10T05:11:41.815Z,90.8984
2023-05-10T05:12:49.841Z,90.8706
2023-05-10T05:13:57.755Z,91.0580
2023-05-10T05:15:07.849Z,90.9944
2023-05-10T05:16:18.852Z,90.4599
2023-05-10T05:17:26.988Z,90.4734
2023-05-10T05:18:34.971Z,90.3503
2023-05-10T05:19:42.983Z,90.2144
2023-05-10T05:20:51.061Z,90.1682
2023-05-10T05:21:59.105Z,90.2170
2023-05-10T05:23:07.239Z,90.6232
2023-05-10T05:24:15.238Z,90.8143
2023-05-10T05:25:23.169Z,91.1004
2023-05-10T05:26:31.469Z,91.3320
2023-05-10T05:27:39.339Z,91.4012
2023-05-10T05:28:47.362Z,91.5492
2023-05-10T05:29:55.380Z,91.7494
2023-05-10T05:31:03.540Z,92.1009
2023-05-10T05:32:11.610Z,92.4310
2023-05-10T05:33:19.768Z,92.4518
2023-05-10T05:34:27.747Z,92.8542
2023-05-10T05:35:35.814Z,92.7134
2023-05-10T05:36:43.831Z,92.8133
2023-05-10T05:37:52.088Z,92.4522
2023-05-10T05:39:00.041Z,92.1491
2023-05-10T05:40:07.998Z,92.0737
2023-05-10T05:41:16.100Z,91.9593
2023-05-10T05:42:24.014Z,92.4021
2023-05-10T05:43:32.016Z,92.5691
2023-05-10T05:44:40.127Z,92.6758
2023-05-10T05:45:48.309Z,92.3588
2023-05-10T05:46:56.631Z,92.3181
2023-05-10T05:48:04.499Z,92.4168
2023-05-10T05:49:12.449Z,92.1930
2023-05-10T05:50:20.556Z,92.5778
2023-05-10T05:51:28.595Z,92.4613
2023-05-10T05:52:36.643Z,93.0018
2023-05-10T05:53:44.740Z,93.0945
2023-05-10T05:54:52.754Z,93.0556
2023-05-10T05:56:00.854Z,93.0978
2023-05-10T05:57:08.739Z,92.6489
2023-05-10T05:58:16.825Z,92.6102
2023-05-10T05:59:24.904Z,92.6865
2023-05-10T06:00:33.149Z,92.6768
2023-05-10T06:01:41.168Z,92.8840
2023-05-10T06:02:49.326Z,92.5756
2023-05-10T06:03:57.323Z,92.8195
2023-05-10T06:05:05.339Z,92.9525
2023-05-10T06:06:13.385Z,92.4241
2023-05-10T06:07:21.422Z,91.9170
2023-05-10T06:08:29.600Z,91.5573
2023-05-10T06:09:37.524Z,91.4306
2023-05-10T06:10:45.589Z,91.1865
2023-05-10T06:11:53.530Z,91.0884
2023-05-10T06:13:01.594Z,91.1456
2023-05-10T06:14:09.683Z,90.9696
2023-05-10T06:15:18.066Z,90.6089
2023-05-10T06:16:26.050Z,90.5524
2023-05-10T06:17:34.006Z,90.6170
2023-05-10T06:18:42.002Z,90.5953
2023-05-10T06:19:50.128Z,90.4027
2023-05-10T06:20:58.204Z,89.7968
2023-05-10T06:22:06.224Z,89.7628
2023-05-10T06:23:14.459Z,89.5079
2023-05-10T06:24:22.348Z,89.7064
2023-05-10T06:25:30.358Z,89.1693
2023-05-10T06:26:38.297Z,88.6061
2023-05-10T06:27:49.766Z,88.5615
2023-05-10T06:28:59.456Z,88.2411
2023-05-10T06:30:13.071Z,88.2720
2023-05-10T06:31:20.387Z,88.3708
2023-05-10T06:32:28.518Z,87.8971
2023-05-10T06:33:36.532Z,87.7073
2023-05-10T06:34:44.687Z,87.5858
2023-05-10T06:35:52.662Z,87.4932
2023-05-10T06:37:00.852Z,87.6116
2023-05-10T06:38:08.769Z,88.1517
2023-05-10T06:39:16.699Z,88.7421
2023-05-10T06:40:24.933Z,89.2248
2023-05-10T06:41:32.785Z,88.3306
2023-05-10T06:42:41.184Z,88.7663
2023-05-10T06:43:49.084Z,88.6602
2023-05-10T06:44:57.323Z,88.5972
2023-05-10T06:46:05.242Z,87.9349
2023-05-10T06:47:13.218Z,87.7615
2023-05-10T06:48:21.308Z,88.4420
2023-05-10T06:49:29.365Z,89.5228
2023-05-10T06:50:37.407Z,89.7835
2023-05-10T06:51:45.455Z,89.4286
2023-05-10T06:52:53.530Z,89.2141
2023-05-10T06:54:01.460Z,89.3950
2023-05-10T06:55:09.513Z,89.6282
2023-05-10T06:56:17.602Z,89.0368
2023-05-10T06:57:31.794Z,88.8779
2023-05-10T06:58:38.692Z,88.2972
2023-05-10T06:59:46.752Z,87.9149
2023-05-10T07:00:54.831Z,87.4367
2023-05-10T07:02:02.899Z,88.1869
2023-05-10T07:03:11.038Z,88.2858
2023-05-10T07:04:19.223Z,88.0747
2023-05-10T07:05:27.053Z,87.8210
2023-05-10T07:06:35.169Z,87.9044
2023-05-10T07:07:43.072Z,88.2258
2023-05-10T07:08:51.091Z,87.7389
2023-05-10T07:09:59.128Z,86.9471
2023-05-10T07:11:07.327Z,87.4487
2023-05-10T07:12:16.046Z,87.3300
2023-05-10T07:13:23.651Z,87.0935
2023-05-10T07:14:31.511Z,86.7347
2023-05-10T07:15:39.580Z,86.6780
2023-05-10T07:16:47.654Z,86.4445
2023-05-10T07:17:55.711Z,86.6282
2023-05-10T07:19:03.792Z,86.5533
2023-05-10T07:20:11.954Z,86.6111
2023-05-10T07:21:20.009Z,86.8330
2023-05-10T07:22:27.809Z,86.0291
2023-05-10T07:23:35.894Z,85.9494
2023-05-10T07:24:43.901Z,85.6513
2023-05-10T07:25:52.104Z,85.4771
2023-05-10T07:27:00.261Z,86.2019
2023-05-10T07:28:08.197Z,86.5524
2023-05-10T07:29:16.411Z,85.3907
2023-05-10T07:30:24.413Z,85.6846
2023-05-10T07:31:32.429Z,84.4837
2023-05-10T07:32:40.596Z,84.1858
2023-05-10T07:33:48.538Z,84.5298
2023-05-10T07:34:56.628Z,84.3010
2023-05-10T07:36:04.626Z,84.7379
2023-05-10T07:37:12.583Z,84.6316
2023-05-10T07:38:20.633Z,84.7693
2023-05-10T07:39:28.690Z,84.0298
2023-05-10T07:40:36.927Z,84.3516
2023-05-10T07:41:45.199Z,84.7261
2023-05-10T07:42:53.038Z,85.2055
2023-05-10T07:44:01.063Z,85.6746
2023-05-10T07:45:09.247Z,85.1905
2023-05-10T07:46:17.510Z,85.0405
2023-05-10T07:47:25.330Z,85.0023
2023-05-10T07:48:33.368Z,85.1053
2023-05-10T07:49:41.367Z,85.5498
2023-05-10T07:50:49.429Z,85.0883
2023-05-10T07:51:57.342Z,84.4660
2023-05-10T07:53:05.476Z,84.6602
2023-05-10T07:54:13.469Z,84.0935
2023-05-10T07:55:21.664Z,84.0183
2023-05-10T07:56:29.778Z,83.7283
2023-05-10T07:57:37.876Z,83.3584
2023-05-10T07:58:45.891Z,83.0890
2023-05-10T07:59:53.938Z,82.4125
2023-05-10T08:01:02.075Z,82.2771
2023-05-10T08:02:10.035Z,82.7555
2023-05-10T08:03:18.208Z,83.5649
2023-05-10T08:04:26.238Z,83.2454
2023-05-10T08:05:35.807Z,82.7058
2023-05-10T08:06:47.140Z,82.8910
2023-05-10T08:07:55.056Z,83.0290
2023-05-10T08:09:03.153Z,82.9296
2023-05-10T08:10:11.283Z,82.6005
2023-05-10T08:11:19.372Z,82.0222
2023-05-10T08:12:27.406Z,82.2495
2023-05-10T08:13:35.561Z,81.5921
2023-05-10T08:14:43.602Z,81.2892
2023-05-10T08:15:51.823Z,80.7331
2023-05-10T08:16:59.807Z,81.8277
2023-05-10T08:18:07.873Z,83.3508
2023-05-10T08:19:15.813Z,83.6176
2023-05-10T08:20:23.819Z,83.5715
2023-05-10T08:21:31.848Z,82.7908
2023-05-10T08:22:39.792Z,80.8471
2023-05-10T08:23:47.900Z,80.6790
2023-05-10T08:24:56.268Z,81.6368
2023-05-10T08:26:04.131Z,80.9125
2023-05-10T08:27:12.222Z,80.2769
2023-05-10T08:28:20.261Z,79.2488
2023-05-10T08:29:30.440Z,78.5612
2023-05-10T08:30:41.449Z,79.8353
2023-05-10T08:31:49.343Z,80.1613
2023-05-10T08:32:57.352Z,79.6709
2023-05-10T08:34:05.385Z,77.9381
2023-05-10T08:35:13.337Z,77.3679
2023-05-10T08:36:21.359Z,78.7612
2023-05-10T08:37:29.400Z,77.6542
2023-05-10T08:38:37.643Z,76.4202
2023-05-10T08:39:45.736Z,78.1922
2023-05-10T08:40:53.738Z,78.9716
2023-05-10T08:42:01.784Z,79.4371
2023-05-10T08:43:09.849Z,79.9595
2023-05-10T08:44:17.881Z,79.5170
2023-05-10T08:45:26.009Z,78.0065
2023-05-10T08:46:34.033Z,77.6336
2023-05-10T08:47:42.069Z,77.7571
2023-05-10T08:48:50.173Z,78.0485
2023-05-10T08:49:58.078Z,76.3358
2023-05-10T08:51:06.095Z,75.0789
2023-05-10T08:52:14.141Z,74.7307
2023-05-10T08:53:22.378Z,75.3989
2023-05-10T08:54:30.417Z,74.2596
2023-05-10T08:55:38.451Z,74.5098
2023-05-10T08:56:49.199Z,75.1550
2023-05-10T08:57:59.475Z,75.3716
2023-05-10T08:59:07.578Z,74.1450
2023-05-10T09:00:15.703Z,73.8802
2023-05-10T09:01:23.710Z,74.9257
2023-05-10T09:02:31.774Z,76.7410
2023-05-10T09:03:39.828Z,75.7187
2023-05-10T09:04:47.902Z,76.1651
2023-05-10T09:05:55.809Z,76.6713
2023-05-10T09:07:03.829Z,75.2086
2023-05-10T09:08:12.150Z,74.4625
2023-05-10T09:09:20.170Z,75.1343
2023-05-10T09:10:28.224Z,76.9841
2023-05-10T09:11:36.194Z,78.2570
2023-05-10T09:12:44.260Z,78.4598
2023-05-10T09:13:52.301Z,77.0041
2023-05-10T09:15:00.584Z,75.7799
2023-05-10T09:16:20.342Z,77.4001
2023-05-10T09:17:21.299Z,77.8121
2023-05-10T09:18:29.322Z,78.5324
2023-05-10T09:19:37.333Z,77.9162
2023-05-10T09:20:45.623Z,78.3764
2023-05-10T09:21:53.593Z,78.7088
2023-05-10T09:23:01.634Z,79.4133
2023-05-10T09:24:09.722Z,79.0009
2023-05-10T09:25:18.121Z,78.4642
2023-05-10T09:26:25.861Z,78.3261
2023-05-10T09:27:33.887Z,78.7316
2023-05-10T09:28:41.931Z,78.5087
2023-05-10T09:29:50.058Z,79.7046
2023-05-10T09:30:58.124Z,80.4617
2023-05-10T09:32:05.956Z,79.7606
2023-05-10T09:33:14.062Z,79.5886
2023-05-10T09:34:22.130Z,78.5262
2023-05-10T09:35:30.342Z,78.0556
2023-05-10T09:36:38.492Z,77.5589
2023-05-10T09:37:46.402Z,78.1767
2023-05-10T09:38:54.493Z,78.3374
2023-05-10T09:40:02.482Z,77.8657
2023-05-10T09:41:10.694Z,77.6988
2023-05-10T09:42:18.633Z,77.8352
2023-05-10T09:43:26.672Z,79.0881
2023-05-10T09:44:34.748Z,79.1965
2023-05-10T09:45:42.799Z,79.5967
2023-05-10T09:46:50.739Z,79.6435
2023-05-10T09:47:58.790Z,78.1456
2023-05-10T09:49:06.787Z,77.0012
2023-05-10T09:50:14.983Z,77.4896
2023-05-10T09:51:23.130Z,77.9628
2023-05-10T09:52:31.086Z,76.5005
2023-05-10T09:53:39.160Z,77.1611
2023-05-10T09:54:47.212Z,77.0678
2023-05-10T09:55:55.316Z,77.4400
2023-05-10T09:57:03.318Z,77.2999
2023-05-10T09:58:11.659Z,76.7977
2023-05-10T09:59:19.423Z,75.8754
2023-05-10T10:00:27.613Z,73.2418
2023-05-10T10:01:35.500Z,73.2531
2023-05-10T10:02:43.513Z,72.6928
2023-05-10T10:03:51.522Z,72.7652
2023-05-10T10:04:59.895Z,74.0252
2023-05-10T10:06:15.901Z,75.6524
2023-05-10T10:07:20.678Z,76.4368
2023-05-10T10:08:28.736Z,75.5650
2023-05-10T10:09:36.770Z,75.4970
2023-05-10T10:10:46.017Z,74.6191
2023-05-10T10:11:53.001Z,73.6044
2023-05-10T10:13:00.963Z,73.4631
2023-05-10T10:14:09.059Z,72.2134
2023-05-10T10:15:17.105Z,72.2264
2023-05-10T10:16:25.021Z,72.0365
2023-05-10T10:17:33.097Z,70.6991
2023-05-10T10:18:41.308Z,72.3261
2023-05-10T10:19:49.310Z,71.1084
2023-05-10T10:20:57.421Z,68.7738
2023-05-10T10:22:05.539Z,68.2235
2023-05-10T10:23:15.170Z,70.1038
2023-05-10T10:24:26.395Z,70.0921
2023-05-10T10:25:34.602Z,69.4445
2023-05-10T10:26:42.515Z,69.5069
2023-05-10T10:27:50.596Z,68.5852
2023-05-10T10:28:58.501Z,68.2954
2023-05-10T10:30:06.546Z,67.5025
2023-05-10T10:31:14.713Z,69.5801
2023-05-10T10:32:22.800Z,71.1266
2023-05-10T10:33:30.996Z,71.9920
2023-05-10T10:34:38.905Z,70.7783
2023-05-10T10:35:46.982Z,69.7942
2023-05-10T10:36:55.006Z,70.4282
2023-05-10T10:38:03.141Z,70.9770
2023-05-10T10:39:11.146Z,70.9675
2023-05-10T10:40:19.275Z,70.6071
2023-05-10T10:41:27.222Z,67.1573
2023-05-10T10:42:35.351Z,64.5828
2023-05-10T10:43:43.244Z,64.9428
2023-05-10T10:44:51.278Z,65.8124
2023-05-10T10:45:59.362Z,66.0761
2023-05-10T10:47:07.728Z,63.1050
2023-05-10T10:48:15.636Z,62.5719
2023-05-10T10:49:23.628Z,62.6500
2023-05-10T10:50:31.809Z,61.0294
2023-05-10T10:51:39.915Z,60.7240
2023-05-10T10:52:48.002Z,60.5909
2023-05-10T10:53:55.851Z,62.3428
2023-05-10T10:55:04.118Z,63.3264
2023-05-10T10:56:12.031Z,63.0313
2023-05-10T10:57:20.077Z,64.8376
2023-05-10T10:58:27.954Z,62.6435
2023-05-10T10:59:36.018Z,64.2884
2023-05-10T11:00:44.114Z,63.5136
2023-05-10T11:01:52.395Z,62.4980
2023-05-10T11:03:00.378Z,63.5212
2023-05-10T11:04:08.379Z,63.2876
2023-05-10T11:05:16.575Z,62.5472
2023-05-10T11:06:24.680Z,63.5229
2023-05-10T11:07:32.605Z,65.3680
2023-05-10T11:08:40.595Z,63.4911
2023-05-10T11:09:48.661Z,64.1360
2023-05-10T11:10:56.910Z,64.7047
2023-05-10T11:12:04.844Z,64.0791
2023-05-10T11:13:12.683Z,64.1365
2023-05-10T11:14:20.733Z,65.4595
2023-05-10T11:15:28.775Z,67.2550
2023-05-10T11:16:37.011Z,67.6291
2023-05-10T11:17:45.259Z,68.9032
2023-05-10T11:18:53.091Z,70.1380
2023-05-10T11:20:01.114Z,70.2758
2023-05-10T11:21:09.341Z,69.0333
2023-05-10T11:22:17.194Z,69.6689
2023-05-10T11:23:25.367Z,70.9828
2023-05-10T11:24:33.452Z,70.1440
2023-05-10T11:25:41.644Z,69.8981
2023-05-10T11:26:49.476Z,70.4715
2023-05-10T11:27:57.448Z,70.1397
2023-05-10T11:29:05.520Z,70.1831
2023-05-10T11:30:13.647Z,66.8577
2023-05-10T11:31:21.829Z,65.5870
2023-05-10T11:32:29.819Z,66.0562
2023-05-10T11:33:37.925Z,67.2048
2023-05-10T11:34:45.849Z,69.3241
2023-05-10T11:35:53.968Z,70.6033
2023-05-10T11:37:01.984Z,69.5267
2023-05-10T11:38:10.075Z,68.2081
2023-05-10T11:39:18.054Z,67.4174
2023-05-10T11:40:26.137Z,67.3097
2023-05-10T11:41:34.394Z,65.3034
2023-05-10T11:42:42.116Z,64.8735
2023-05-10T11:43:50.136Z,66.0195
2023-05-10T11:44:58.248Z,66.1791
2023-05-10T11:46:06.633Z,65.8234
2023-05-10T11:47:15.309Z,63.6069
2023-05-10T11:48:22.589Z,62.9057
2023-05-10T11:49:30.855Z,64.5311
2023-05-10T11:50:38.631Z,64.7691
2023-05-10T11:51:46.678Z,64.5009
2023-05-10T11:52:54.801Z,62.9046
2023-05-10T11:54:02.867Z,62.8711
2023-05-10T11:55:10.859Z,63.9427
2023-05-10T11:56:18.939Z,65.0235
2023-05-10T11:57:27.020Z,64.2974
2023-05-10T11:58:34.905Z,62.4457
2023-05-10T11:59:43.345Z,63.3798
2023-05-10T12:00:51.020Z,64.7429
2023-05-10T12:01:59.177Z,64.9863
2023-05-10T12:03:07.374Z,63.7460
2023-05-10T12:04:15.445Z,63.1659
2023-05-10T12:05:23.366Z,64.6582
2023-05-10T12:06:31.468Z,63.3311
2023-05-10T12:07:39.547Z,63.5686
2023-05-10T12:08:47.520Z,62.5316
2023-05-10T12:09:55.570Z,62.2350
2023-05-10T12:11:03.646Z,62.2156
2023-05-10T12:12:11.706Z,61.8915
2023-05-10T12:13:19.649Z,60.2398
2023-05-10T12:14:27.718Z,57.2185
2023-05-10T12:15:35.755Z,57.0183
2023-05-10T12:16:43.987Z,57.0637
2023-05-10T12:17:52.075Z,56.8666
2023-05-10T12:19:00.077Z,57.3789
2023-05-10T12:20:08.088Z,58.2739
2023-05-10T12:21:16.194Z,58.6682
2023-05-10T12:22:24.224Z,58.8420
2023-05-10T12:23:32.334Z,59.5491
2023-05-10T12:24:40.384Z,60.2874
2023-05-10T12:25:48.417Z,60.7780
2023-05-10T12:26:56.425Z,59.8074
2023-05-10T12:28:04.423Z,59.0379
2023-05-10T12:29:12.428Z,58.6134
2023-05-10T12:30:20.482Z,59.5824
2023-05-10T12:31:28.836Z,62.5513
2023-05-10T12:32:36.750Z,63.7692
2023-05-10T12:33:44.798Z,64.7113
2023-05-10T12:34:52.860Z,66.2470
2023-05-10T12:36:00.894Z,67.4516
2023-05-10T12:37:08.905Z,66.3350
2023-05-10T12:38:17.077Z,65.9470
2023-05-10T12:39:25.046Z,65.7179
2023-05-10T12:40:33.221Z,66.2549
2023-05-10T12:41:43.518Z,66.5923
2023-05-10T12:42:53.999Z,66.7116
2023-05-10T12:44:02.025Z,65.9668
2023-05-10T12:45:10.069Z,65.2552
2023-05-10T12:46:18.315Z,65.8596
2023-05-10T12:47:26.442Z,66.4840
2023-05-10T12:48:34.383Z,67.7745
2023-05-10T12:49:42.475Z,67.9885
2023-05-10T12:50:50.453Z,68.7674
2023-05-10T12:51:58.517Z,69.1025
2023-05-10T12:53:06.630Z,69.3963
2023-05-10T12:54:14.818Z,69.6602
2023-05-10T12:55:22.704Z,70.2156
2023-05-10T12:56:30.854Z,70.6801
2023-05-10T12:57:38.677Z,70.0199
2023-05-10T12:58:46.760Z,70.7169
2023-05-10T12:59:54.804Z,69.7734
2023-05-10T13:01:03.172Z,69.7439
2023-05-10T13:02:11.060Z,69.5565
2023-05-10T13:03:19.285Z,69.3632
2023-05-10T13:04:27.201Z,69.4305
2023-05-10T13:05:35.285Z,68.8475
2023-05-10T13:06:43.348Z,68.4547
2023-05-10T13:07:51.472Z,71.0243
2023-05-10T13:08:59.509Z,71.2530
2023-05-10T13:10:07.586Z,69.8662
2023-05-10T13:11:15.694Z,69.9437
2023-05-10T13:12:23.537Z,70.5876
2023-05-10T13:13:31.606Z,71.5683
2023-05-10T13:14:39.623Z,72.1437
2023-05-10T13:15:47.788Z,72.7157
2023-05-10T13:16:55.973Z,72.4192
2023-05-10T13:18:04.120Z,72.2115
2023-05-10T13:19:12.256Z,72.4481
2023-05-10T13:20:20.014Z,73.1749
2023-05-10T13:21:28.079Z,73.7791
2023-05-10T13:22:40.197Z,74.8993
2023-05-10T13:23:49.098Z,74.7796
2023-05-10T13:24:57.134Z,73.5878
2023-05-10T13:26:05.088Z,72.8937
2023-05-10T13:27:13.108Z,72.6546
2023-05-10T13:28:21.176Z,70.5542
2023-05-10T13:29:29.421Z,68.1613
2023-05-10T13:30:37.418Z,66.4405
2023-05-10T13:31:45.540Z,65.1816
2023-05-10T13:32:53.575Z,64.4648
2023-05-10T13:34:01.716Z,64.3784
2023-05-10T13:35:09.548Z,66.1921
2023-05-10T13:36:17.823Z,65.6464
2023-05-10T13:37:25.808Z,65.8723
2023-05-10T13:38:33.832Z,67.2324
2023-05-10T13:39:42.057Z,68.1116
2023-05-10T13:40:49.808Z,69.3792
2023-05-10T13:41:57.852Z,70.9824
2023-05-10T13:43:05.954Z,73.1662
2023-05-10T13:44:14.263Z,72.7010